Jacksonville, FL (32216)

3:50 PM EDT on September 18, 2014 (GMT -0400)
Grove Park | Change Station
CLOSE
Current Station
Personal Weather Station
Location: Jacksonville, FL
Elevation: 0 ft
Nearby Weather Stations

Elev 0 ft 30.30 °N, 81.58 °W | Updated 14 seconds ago

Partly Cloudy
Partly Cloudy
88.0 °F
Feels Like 93 °F
N
0.0
Wind Variable Wind from North
Gusts 2.2 mph

Today
High -- | Low -- °F
--% Chance of Precip.
Yesterday
High -- | Low -- °F
Precip. -- in
7:12 AM 7:27 PM
Waning Crescent, 25% visible
Pressure 29.89 in
Visibility 10.0 miles
Clouds Scattered Clouds 4300 ft
Scattered Clouds 5000 ft
Heat Index 93 °F
Dew Point 70 °F
Humidity 55%
Rainfall 0.00 in
Snow Depth Not available.
UV 8 out of 12
Pollen 8.10 out of 12
Ozone Good
PM2.5 Good
Flu Activity Not available.
METAR KCRG 181853Z 10008KT 10SM SCT043 SCT050 31/22 A2989 RMK AO2 SLP122 T03110217

More Conditions Fewer Conditions

Pressure 29.89 in
Visibility 10.0 miles
Clouds Scattered Clouds 4300 ft
Scattered Clouds 5000 ft
Heat Index 93 °F
Dew Point 70 °F
Humidity 55%
Rainfall 0.00 in
Snow Depth Not available.
UV 8 out of 12
Pollen 8.10 out of 12
Ozone Good
PM2.5 Good
Flu Activity Not available.
METAR KCRG 181853Z 10008KT 10SM SCT043 SCT050 31/22 A2989 RMK AO2 SLP122 T03110217

More Conditions Fewer Conditions

10-Day Weather Forecast

Almanac

Astronomy

Sep. 18, 2014 Rise Set
Actual Time 7:12 AM EDT 7:27 PM EDT
Civil Twilight 6:48 AM EDT 7:51 PM EDT
Nautical Twilight 6:20 AM EDT 8:19 PM EDT
Astronomical Twilight 5:52 AM EDT 8:48 PM EDT
Moon 2:19 AM EDT 4:03 PM EDT
Length of Visible Light 13h 03m
Length of Day
12h 15m
Tomorrow will be 1m 48s shorter.
Waning Crescent, 25% of the Moon is Illuminated
Today
Waning Crescent
Sep 24
New
Oct 1
First Quarter
Oct 8
Full
Oct 15
Last Quarter

Today's Extremes

State Highs State Lows

Community

WunderPhotos

Upload Photos

1,754,421 photos uploaded!

WunderBlogs® & News

By Dr. Jeff Masters
Director of Meteorology, Weather Underground
By Kari Strenfel
Meteorologist, Weather Underground
By Christopher C. Burt
Weather Historian, Weather Underground
September 18, 2014
September 18, 2014
September 18, 2014

Nearby

Air Quality

  Air Quality AQ Index Pollutant
Yesterday Good
OZONE
Yesterday Good
PM2.5
Current Good
OZONE
Current Good
PM2.5
Thursday Good
OZONE
Thursday Good
PM2.5

Snow Depth

Station Depth Elevation
No new snow has been reported.

Earthquake Activity

City Distance Mag. Time & Date
No recent earthquake activity has been reported nearby.
Minimum magnitude displayed is 2.5.

Coastal Water Temperatures

Place Temperature
Mayport (Bar Pilots Dock), FL 84.9 °F
Fernandina Beach, FL 84.0 °F

Nearby Weather Stations